createdAt,value
2018-07-16T00:00:36.084Z,101175.73
2018-07-16T00:03:04.410Z,101179.41
2018-07-16T00:05:32.749Z,101184.98
2018-07-16T00:08:01.100Z,101186.06
2018-07-16T00:10:29.399Z,101180.03
2018-07-16T00:12:57.723Z,101181.73
2018-07-16T00:15:26.040Z,101180.82
2018-07-16T00:17:54.360Z,101183.88
2018-07-16T00:20:22.706Z,101175.59
2018-07-16T00:22:51.034Z,101174.85
2018-07-16T00:25:19.348Z,101174.20
2018-07-16T00:27:47.687Z,101186.09
2018-07-16T00:30:16.000Z,101181.84
2018-07-16T00:32:44.316Z,101167.88
2018-07-16T00:35:12.635Z,101172.27
2018-07-16T00:37:40.951Z,101167.94
2018-07-16T00:40:09.312Z,101169.55
2018-07-16T00:42:37.627Z,101171.00
2018-07-16T00:45:06.000Z,101168.62
2018-07-16T00:47:34.348Z,101172.27
2018-07-16T00:50:02.676Z,101172.87
2018-07-16T00:52:30.990Z,101177.17
2018-07-16T00:54:59.302Z,101172.81
2018-07-16T00:57:27.653Z,101170.43
2018-07-16T00:59:55.960Z,101166.97
2018-07-16T01:02:24.262Z,101166.81
2018-07-16T01:04:52.606Z,101162.33
2018-07-16T01:07:20.984Z,101158.83
2018-07-16T01:09:49.294Z,101163.00
2018-07-16T01:12:17.609Z,101158.92
2018-07-16T01:14:45.908Z,101155.95
2018-07-16T01:17:14.247Z,101163.91
2018-07-16T01:19:42.557Z,101156.87
2018-07-16T01:22:10.877Z,101149.20
2018-07-16T01:24:39.205Z,101150.61
2018-07-16T01:27:07.592Z,101149.13
2018-07-16T01:29:35.921Z,101151.77
2018-07-16T01:32:04.248Z,101156.96
2018-07-16T01:34:32.800Z,101159.59
2018-07-16T01:37:01.121Z,101161.20
2018-07-16T01:39:29.457Z,101157.12
2018-07-16T01:41:57.771Z,101165.03
2018-07-16T01:44:26.099Z,101161.41
2018-07-16T01:46:54.413Z,101163.76
2018-07-16T01:49:22.821Z,101166.92
2018-07-16T01:51:51.126Z,101164.41
2018-07-16T01:54:19.452Z,101163.46
2018-07-16T01:56:47.852Z,101161.84
2018-07-16T01:59:16.178Z,101164.77
2018-07-16T02:01:44.509Z,101168.55
2018-07-16T02:04:12.924Z,101165.34
2018-07-16T02:06:41.274Z,101165.09
2018-07-16T02:09:09.616Z,101161.07
2018-07-16T02:11:37.946Z,101159.17
2018-07-16T02:14:06.338Z,101160.52
2018-07-16T02:16:34.690Z,101163.07
2018-07-16T02:19:02.989Z,101162.00
2018-07-16T02:21:31.306Z,101159.20
2018-07-16T02:23:59.634Z,101158.83
2018-07-16T02:26:28.179Z,101156.55
2018-07-16T02:28:56.566Z,101157.30
2018-07-16T02:31:24.906Z,101154.72
2018-07-16T02:33:53.256Z,101153.05
2018-07-16T02:36:21.584Z,101148.69
2018-07-16T02:38:49.975Z,101147.62
2018-07-16T02:41:18.293Z,101147.47
2018-07-16T02:43:46.601Z,101145.73
2018-07-16T02:46:14.907Z,101152.84
2018-07-16T02:48:43.255Z,101152.64
2018-07-16T02:51:11.567Z,101152.95
2018-07-16T02:53:40.007Z,101154.31
2018-07-16T02:56:08.394Z,101146.94
2018-07-16T02:58:36.696Z,101153.57
2018-07-16T03:01:05.028Z,101153.38
2018-07-16T03:03:33.360Z,101154.35
2018-07-16T03:06:01.684Z,101156.27
2018-07-16T03:08:30.006Z,101161.32
2018-07-16T03:10:58.344Z,101162.56
2018-07-16T03:13:26.691Z,101167.88
2018-07-16T03:15:55.051Z,101160.59
2018-07-16T03:18:23.346Z,101156.16
2018-07-16T03:20:51.668Z,101155.06
2018-07-16T03:23:19.976Z,101156.84
2018-07-16T03:25:48.335Z,101156.16
2018-07-16T03:28:16.652Z,101160.05
2018-07-16T03:30:44.968Z,101160.80
2018-07-16T03:33:13.284Z,101162.16
2018-07-16T03:35:41.606Z,101161.78
2018-07-16T03:38:09.936Z,101159.87
2018-07-16T03:40:38.225Z,101160.04
2018-07-16T03:43:06.740Z,101160.66
2018-07-16T03:45:35.060Z,101164.73
2018-07-16T03:48:03.392Z,101165.48
2018-07-16T03:50:31.707Z,101155.49
2018-07-16T03:53:00.016Z,101156.17
2018-07-16T03:55:28.364Z,101152.59
2018-07-16T03:57:56.670Z,101152.96
2018-07-16T04:00:24.989Z,101149.20
2018-07-16T04:02:53.321Z,101150.94
2018-07-16T04:05:21.630Z,101157.72
2018-07-16T04:07:49.963Z,101155.19
2018-07-16T04:10:18.283Z,101154.50
2018-07-16T04:12:46.594Z,101153.27
2018-07-16T04:15:14.907Z,101149.38
2018-07-16T04:17:43.264Z,101148.20
2018-07-16T04:20:11.596Z,101148.95
2018-07-16T04:22:39.921Z,101147.59
2018-07-16T04:25:08.255Z,101154.65
2018-07-16T04:27:36.559Z,101150.97
2018-07-16T04:30:04.877Z,101151.03
2018-07-16T04:32:33.185Z,101150.81
2018-07-16T04:35:01.509Z,101151.30
2018-07-16T04:37:29.872Z,101152.05
2018-07-16T04:39:58.269Z,101149.31
2018-07-16T04:42:26.508Z,101146.45
2018-07-16T04:44:54.824Z,101143.42
2018-07-16T04:47:23.200Z,101146.48
2018-07-16T04:49:51.603Z,101140.64
2018-07-16T04:52:19.924Z,101140.33
2018-07-16T04:54:48.214Z,101141.30
2018-07-16T04:57:16.584Z,101141.73
2018-07-16T04:59:44.997Z,101140.45
2018-07-16T05:02:13.295Z,101137.20
2018-07-16T05:04:41.622Z,101135.13
2018-07-16T05:07:09.926Z,101141.85
2018-07-16T05:09:38.246Z,101135.99
2018-07-16T05:12:06.611Z,101135.55
2018-07-16T05:14:34.974Z,101134.99
2018-07-16T05:17:03.279Z,101135.80
2018-07-16T05:19:31.677Z,101135.37
2018-07-16T05:21:59.974Z,101138.63
2018-07-16T05:24:28.306Z,101136.09
2018-07-16T05:26:56.618Z,101129.54
2018-07-16T05:29:24.959Z,101127.49
2018-07-16T05:31:53.529Z,101122.91
2018-07-16T05:34:21.653Z,101124.85
2018-07-16T05:36:49.981Z,101118.44
2018-07-16T05:39:18.313Z,101121.06
2018-07-16T05:41:46.620Z,101125.11
2018-07-16T05:44:14.965Z,101123.07
2018-07-16T05:46:43.322Z,101119.27
2018-07-16T05:49:11.644Z,101124.14
2018-07-16T05:51:39.949Z,101120.23
2018-07-16T05:54:08.264Z,101120.27
2018-07-16T05:56:36.588Z,101117.46
2018-07-16T05:59:05.422Z,101110.58
2018-07-16T06:01:33.735Z,101108.47
2018-07-16T06:04:02.106Z,101104.88
2018-07-16T06:06:30.733Z,101105.05
2018-07-16T06:08:59.064Z,101104.06
2018-07-16T06:11:27.396Z,101097.33
2018-07-16T06:13:55.702Z,101105.50
2018-07-16T06:16:24.026Z,101100.39
2018-07-16T06:18:52.327Z,101098.84
2018-07-16T06:21:20.642Z,101101.89
2018-07-16T06:23:48.955Z,101104.42
2018-07-16T06:26:17.294Z,101093.15
2018-07-16T06:28:45.630Z,101084.52
2018-07-16T06:31:13.952Z,101088.68
2018-07-16T06:33:42.309Z,101088.14
2018-07-16T06:36:10.621Z,101089.72
2018-07-16T06:38:38.911Z,101095.45
2018-07-16T06:41:07.534Z,101081.72
2018-07-16T06:43:35.648Z,101084.94
2018-07-16T06:46:03.951Z,101079.81
2018-07-16T06:48:32.273Z,101083.08
2018-07-16T06:51:00.588Z,101078.93
2018-07-16T06:53:28.900Z,101079.19
2018-07-16T06:55:57.227Z,101084.11
2018-07-16T06:58:25.557Z,101080.55
2018-07-16T07:00:54.033Z,101076.11
2018-07-16T07:03:22.342Z,101064.92
2018-07-16T07:05:50.700Z,101059.94
2018-07-16T07:08:19.002Z,101063.98
2018-07-16T07:10:47.316Z,101062.12
2018-07-16T07:13:15.633Z,101063.58
2018-07-16T07:15:43.939Z,101056.15
2018-07-16T07:18:12.294Z,101057.45
2018-07-16T07:20:40.619Z,101057.70
2018-07-16T07:23:09.470Z,101059.92
2018-07-16T07:25:37.900Z,101050.90
2018-07-16T07:28:06.188Z,101049.02
2018-07-16T07:30:34.556Z,101052.22
2018-07-16T07:33:02.888Z,101049.58
2018-07-16T07:35:31.343Z,101048.69
2018-07-16T07:37:59.689Z,101051.72
2018-07-16T07:40:28.037Z,101044.11
2018-07-16T07:42:56.386Z,101045.79
2018-07-16T07:45:24.725Z,101041.77
2018-07-16T07:47:53.075Z,101050.41
2018-07-16T07:50:21.410Z,101057.61
2018-07-16T07:52:49.801Z,101059.70
2018-07-16T07:55:18.535Z,101055.55
2018-07-16T07:57:46.505Z,101056.13
2018-07-16T08:00:14.832Z,101051.00
2018-07-16T08:02:43.168Z,101049.84
2018-07-16T08:05:11.480Z,101049.72
2018-07-16T08:07:39.810Z,101046.41
2018-07-16T08:10:08.177Z,101055.68
2018-07-16T08:12:36.516Z,101055.28
2018-07-16T08:15:04.833Z,101049.45
2018-07-16T08:17:33.257Z,101046.64
2018-07-16T08:20:01.597Z,101046.30
2018-07-16T08:22:29.972Z,101042.93
2018-07-16T08:24:58.349Z,101046.41
2018-07-16T08:27:26.696Z,101049.39
2018-07-16T08:29:55.076Z,101046.84
2018-07-16T08:32:23.426Z,101045.19
2018-07-16T08:34:51.817Z,101030.36
2018-07-16T08:37:20.177Z,101031.47
2018-07-16T08:39:48.557Z,101031.66
2018-07-16T08:42:16.989Z,101033.43
2018-07-16T08:44:45.422Z,101027.34
2018-07-16T08:47:13.771Z,101028.53
2018-07-16T08:49:42.535Z,101031.68
2018-07-16T08:52:11.135Z,101028.88
2018-07-16T08:54:39.629Z,101029.11
2018-07-16T08:57:08.502Z,101029.80
2018-07-16T08:59:36.850Z,101026.02
2018-07-16T09:02:05.188Z,101035.34
2018-07-16T09:04:37.392Z,101025.03
2018-07-16T09:07:08.144Z,101026.40
2018-07-16T09:09:36.621Z,101028.08
2018-07-16T09:12:04.927Z,101028.51
2018-07-16T09:14:33.254Z,101035.64
2018-07-16T09:17:01.697Z,101030.13
2018-07-16T09:19:29.960Z,101036.67
2018-07-16T09:21:58.308Z,101041.39
2018-07-16T09:24:26.635Z,101028.88
2018-07-16T09:26:55.018Z,101035.25
2018-07-16T09:29:23.345Z,101025.48
2018-07-16T09:31:51.684Z,101029.52
2018-07-16T09:34:24.106Z,101026.34
2018-07-16T09:36:52.579Z,101022.15
2018-07-16T09:39:20.929Z,101019.78
2018-07-16T09:41:49.282Z,101022.09
2018-07-16T09:44:17.651Z,101014.62
2018-07-16T09:46:45.988Z,101014.69
2018-07-16T09:49:14.328Z,101011.31
2018-07-16T09:51:42.644Z,101013.23
2018-07-16T09:54:10.988Z,101015.18
2018-07-16T09:56:39.314Z,101004.85
2018-07-16T09:59:07.645Z,101000.51
2018-07-16T10:01:41.253Z,100991.69
2018-07-16T10:04:09.601Z,100987.56
2018-07-16T10:06:37.938Z,100987.41
2018-07-16T10:09:07.474Z,100989.63
2018-07-16T10:11:35.792Z,100988.69
2018-07-16T10:14:04.124Z,100989.61
2018-07-16T10:16:32.463Z,100984.08
2018-07-16T10:19:01.088Z,100983.11
2018-07-16T10:21:29.556Z,100980.82
2018-07-16T10:23:57.890Z,100976.09
2018-07-16T10:26:26.239Z,100971.50
2018-07-16T10:28:54.563Z,100979.80
2018-07-16T10:31:22.910Z,100975.23
2018-07-16T10:33:51.257Z,100970.35
2018-07-16T10:36:19.594Z,100974.44
2018-07-16T10:38:47.949Z,100962.23
2018-07-16T10:41:16.300Z,100957.73
2018-07-16T10:43:44.782Z,100964.36
2018-07-16T10:46:13.130Z,100960.41
2018-07-16T10:48:41.459Z,100959.92
2018-07-16T10:51:09.795Z,100965.58
2018-07-16T10:53:38.147Z,100959.06
2018-07-16T10:56:06.479Z,100964.30
2018-07-16T10:58:34.868Z,100953.91
2018-07-16T11:01:03.205Z,100954.38
2018-07-16T11:03:31.550Z,100963.39
2018-07-16T11:06:05.164Z,100957.58
2018-07-16T11:08:33.520Z,100954.59
2018-07-16T11:11:02.378Z,100951.73
2018-07-16T11:13:30.683Z,100945.86
2018-07-16T11:15:59.033Z,100947.54
2018-07-16T11:18:27.415Z,100949.14
2018-07-16T11:20:55.770Z,100946.31
2018-07-16T11:23:24.113Z,100948.92
2018-07-16T11:25:55.313Z,100952.34
2018-07-16T11:28:24.214Z,100946.20
2018-07-16T11:30:53.301Z,100947.68
2018-07-16T11:33:21.890Z,100945.81
2018-07-16T11:35:50.301Z,100944.48
2018-07-16T11:38:18.645Z,100940.97
2018-07-16T11:40:47.119Z,100945.13
2018-07-16T11:43:16.336Z,100940.14
2018-07-16T11:45:44.700Z,100940.56
2018-07-16T11:48:13.263Z,100940.38
2018-07-16T11:50:41.604Z,100944.03
2018-07-16T11:53:09.945Z,100935.73
2018-07-16T11:55:38.333Z,100928.94
2018-07-16T11:59:35.828Z,100931.64
2018-07-16T12:02:04.173Z,100921.82
2018-07-16T12:04:32.499Z,100921.17
2018-07-16T12:07:00.853Z,100921.17
2018-07-16T12:09:29.201Z,100923.41
2018-07-16T12:11:57.507Z,100922.41
2018-07-16T12:14:25.844Z,100916.71
2018-07-16T12:16:54.176Z,100911.04
2018-07-16T12:19:22.513Z,100910.70
2018-07-16T12:21:50.820Z,100904.00
2018-07-16T12:24:19.139Z,100896.25
2018-07-16T12:26:47.445Z,100892.61
2018-07-16T12:29:15.767Z,100904.34
2018-07-16T12:31:44.087Z,100898.48
2018-07-16T12:34:12.403Z,100893.48
2018-07-16T12:36:40.747Z,100877.81
2018-07-16T12:39:09.081Z,100879.87
2018-07-16T12:41:37.489Z,100871.07
2018-07-16T12:44:05.809Z,100866.95
2018-07-16T12:46:34.148Z,100867.80
2018-07-16T12:49:02.461Z,100861.61
2018-07-16T12:51:30.826Z,100855.92
2018-07-16T12:53:59.186Z,100851.09
2018-07-16T12:56:27.556Z,100847.66
2018-07-16T12:58:55.858Z,100838.88
2018-07-16T13:01:24.187Z,100838.88
2018-07-16T13:03:52.524Z,100842.52
2018-07-16T13:06:22.784Z,100829.41
2018-07-16T13:08:51.846Z,100832.87
2018-07-16T13:11:20.172Z,100827.17
2018-07-16T13:13:48.497Z,100833.34
2018-07-16T13:16:16.840Z,100828.88
2018-07-16T13:18:45.161Z,100825.79
2018-07-16T13:21:13.519Z,100820.96
2018-07-16T13:23:41.820Z,100815.11
2018-07-16T13:26:10.152Z,100812.00
2018-07-16T13:28:38.452Z,100811.47
2018-07-16T13:31:06.809Z,100808.53
2018-07-16T13:33:35.115Z,100806.14
2018-07-16T13:36:03.760Z,100799.59
2018-07-16T13:38:32.084Z,100802.03
2018-07-16T13:41:00.403Z,100800.80
2018-07-16T13:43:28.736Z,100796.51
2018-07-16T13:45:57.052Z,100795.99
2018-07-16T13:48:25.392Z,100791.30
2018-07-16T13:50:53.728Z,100787.52
2018-07-16T13:53:22.351Z,100778.20
2018-07-16T13:55:50.666Z,100766.88
2018-07-16T13:58:19.011Z,100762.39
2018-07-16T14:00:47.491Z,100752.06
2018-07-16T14:03:15.808Z,100747.94
2018-07-16T14:05:44.142Z,100756.19
2018-07-16T14:08:12.473Z,100761.69
2018-07-16T14:10:40.843Z,100758.95
2018-07-16T14:13:09.192Z,100762.07
2018-07-16T14:15:37.677Z,100763.06
2018-07-16T14:18:05.984Z,100768.59
2018-07-16T14:20:34.378Z,100760.20
2018-07-16T14:23:02.723Z,100757.44
2018-07-16T14:25:31.076Z,100751.73
2018-07-16T14:27:59.545Z,100752.61
2018-07-16T14:30:27.861Z,100750.04
2018-07-16T14:32:56.224Z,100749.19
2018-07-16T14:35:24.605Z,100746.58
2018-07-16T14:37:52.952Z,100749.34
2018-07-16T14:40:21.257Z,100747.62
2018-07-16T14:42:49.573Z,100753.98
2018-07-16T14:45:17.909Z,100750.90
2018-07-16T14:47:46.260Z,100750.04
2018-07-16T14:50:14.644Z,100755.87
2018-07-16T14:52:42.937Z,100747.95
2018-07-16T14:55:11.527Z,100746.91
2018-07-16T14:57:39.863Z,100736.25
2018-07-16T15:00:08.228Z,100738.15
2018-07-16T15:02:36.558Z,100734.88
2018-07-16T15:05:05.002Z,100736.39
2018-07-16T15:07:33.353Z,100726.92
2018-07-16T15:10:01.688Z,100732.77
2018-07-16T15:12:30.002Z,100724.86
2018-07-16T15:14:58.349Z,100732.11
2018-07-16T15:17:26.700Z,100723.67
2018-07-16T15:19:55.117Z,100725.20
2018-07-16T15:22:23.452Z,100728.32
2018-07-16T15:24:51.797Z,100726.07
2018-07-16T15:27:20.188Z,100720.76
2018-07-16T15:29:48.552Z,100729.89
2018-07-16T15:32:16.862Z,100723.67
2018-07-16T15:34:45.207Z,100730.39
2018-07-16T15:37:13.556Z,100730.39
2018-07-16T15:39:42.448Z,100724.55
2018-07-16T15:42:10.770Z,100724.41
2018-07-16T15:44:39.095Z,100722.14
2018-07-16T15:47:07.575Z,100722.11
2018-07-16T15:49:35.908Z,100721.14
2018-07-16T15:52:04.305Z,100717.98
2018-07-16T15:54:32.720Z,100720.06
2018-07-16T15:57:01.080Z,100713.19
2018-07-16T15:59:29.428Z,100714.71
2018-07-16T16:01:57.771Z,100714.89
2018-07-16T16:04:26.111Z,100710.77
2018-07-16T16:06:54.443Z,100710.24
2018-07-16T16:09:22.791Z,100713.18
2018-07-16T16:11:51.395Z,100705.26
2018-07-16T16:14:19.716Z,100705.44
2018-07-16T16:16:48.254Z,100715.59
2018-07-16T16:19:16.604Z,100719.20
2018-07-16T16:21:44.921Z,100713.52
2018-07-16T16:24:13.384Z,100717.98
2018-07-16T16:26:42.136Z,100714.22
2018-07-16T16:29:11.042Z,100715.23
2018-07-16T16:31:39.449Z,100715.08
2018-07-16T16:34:07.923Z,100716.97
2018-07-16T16:36:36.350Z,100716.59
2018-07-16T16:39:07.019Z,100711.80
2018-07-16T16:41:35.910Z,100708.00
2018-07-16T16:44:04.311Z,100707.81
2018-07-16T16:46:32.671Z,100712.12
2018-07-16T16:49:01.165Z,100709.70
2018-07-16T16:51:29.592Z,100707.28
2018-07-16T16:53:57.929Z,100710.58
2018-07-16T16:56:26.353Z,100705.23
2018-07-16T16:58:54.666Z,100703.52
2018-07-16T17:01:23.136Z,100704.52
2018-07-16T17:03:51.459Z,100703.84
2018-07-16T17:06:20.035Z,100699.37
2018-07-16T17:08:48.591Z,100700.73
2018-07-16T17:11:17.077Z,100697.61
2018-07-16T17:13:45.451Z,100692.93
2018-07-16T17:16:13.975Z,100698.42
2018-07-16T17:18:42.742Z,100692.78
2018-07-16T17:21:11.140Z,100688.98
2018-07-16T17:23:40.016Z,100688.31
2018-07-16T17:26:08.546Z,100684.19
2018-07-16T17:28:36.928Z,100690.53
2018-07-16T17:31:05.289Z,100690.00
2018-07-16T17:33:33.642Z,100687.06
2018-07-16T17:36:02.080Z,100681.21
2018-07-16T17:38:30.528Z,100687.23
2018-07-16T17:40:58.864Z,100687.89
2018-07-16T17:43:27.212Z,100686.50
2018-07-16T17:45:55.605Z,100688.23
2018-07-16T17:48:23.913Z,100686.16
2018-07-16T17:50:52.250Z,100686.47
2018-07-16T17:53:20.646Z,100684.42
2018-07-16T17:55:49.000Z,100675.64
2018-07-16T17:58:17.285Z,100675.45
2018-07-16T18:00:45.635Z,100687.46
2018-07-16T18:03:13.990Z,100682.83
2018-07-16T18:05:42.424Z,100682.62
2018-07-16T18:08:10.746Z,100687.45
2018-07-16T18:10:39.110Z,100690.17
2018-07-16T18:13:07.520Z,100688.28
2018-07-16T18:15:35.855Z,100696.70
2018-07-16T18:18:04.258Z,100703.89
2018-07-16T18:20:32.724Z,100707.16
2018-07-16T18:23:01.066Z,100708.67
2018-07-16T18:25:29.417Z,100709.88
2018-07-16T18:27:57.744Z,100711.36
2018-07-16T18:30:26.180Z,100709.66
2018-07-16T18:32:54.524Z,100711.52
2018-07-16T18:35:22.927Z,100709.29
2018-07-16T18:37:51.215Z,100708.95
2018-07-16T18:40:19.592Z,100717.50
2018-07-16T18:42:47.941Z,100706.84
2018-07-16T18:45:16.295Z,100713.19
2018-07-16T18:47:44.648Z,100715.39
2018-07-16T18:50:13.011Z,100719.52
2018-07-16T18:52:41.352Z,100715.37
2018-07-16T18:55:09.678Z,100721.37
2018-07-16T18:57:38.019Z,100725.33
2018-07-16T19:00:07.562Z,100728.39
2018-07-16T19:02:35.893Z,100735.91
2018-07-16T19:05:04.219Z,100733.14
2018-07-16T19:07:32.543Z,100740.17
2018-07-16T19:10:00.876Z,100738.25
2018-07-16T19:12:29.192Z,100733.08
2018-07-16T19:14:57.508Z,100735.11
2018-07-16T19:17:25.887Z,100740.56
2018-07-16T19:19:54.208Z,100746.02
2018-07-16T19:22:22.513Z,100744.44
2018-07-16T19:24:50.828Z,100738.27
2018-07-16T19:27:19.176Z,100745.06
2018-07-16T19:29:47.509Z,100749.86
2018-07-16T19:32:15.860Z,100767.98
2018-07-16T19:34:44.246Z,100785.59
2018-07-16T19:37:12.600Z,100787.53
2018-07-16T19:39:40.939Z,100786.16
2018-07-16T19:42:09.252Z,100785.87
2018-07-16T19:44:37.588Z,100778.11
2018-07-16T19:47:05.904Z,100782.48
2018-07-16T19:49:34.250Z,100779.51
2018-07-16T19:52:02.609Z,100775.30
2018-07-16T19:54:30.938Z,100774.88
2018-07-16T19:56:59.296Z,100776.84
2018-07-16T19:59:27.621Z,100784.17
2018-07-16T20:01:55.972Z,100783.05
2018-07-16T20:04:24.321Z,100776.38
2018-07-16T20:06:55.908Z,100780.39
2018-07-16T20:09:24.691Z,100784.50
2018-07-16T20:11:53.036Z,100777.94
2018-07-16T20:14:21.342Z,100775.09
2018-07-16T20:16:49.673Z,100773.38
2018-07-16T20:19:18.037Z,100777.30
2018-07-16T20:21:46.386Z,100768.58
2018-07-16T20:24:14.731Z,100762.86
2018-07-16T20:26:43.042Z,100767.61
2018-07-16T20:29:11.368Z,100765.48
2018-07-16T20:31:39.732Z,100759.63
2018-07-16T20:34:08.067Z,100764.46
2018-07-16T20:36:36.399Z,100765.77
2018-07-16T20:39:06.420Z,100754.47
2018-07-16T20:41:34.867Z,100758.70
2018-07-16T20:44:03.348Z,100752.50
2018-07-16T20:46:31.712Z,100759.47
2018-07-16T20:49:00.052Z,100758.71
2018-07-16T20:51:28.376Z,100762.81
2018-07-16T20:53:56.748Z,100751.96
2018-07-16T20:56:25.155Z,100755.63
2018-07-16T20:58:53.487Z,100755.40
2018-07-16T21:01:21.796Z,100753.27
2018-07-16T21:03:50.128Z,100758.52
2018-07-16T21:06:18.442Z,100759.24
2018-07-16T21:08:46.789Z,100759.17
2018-07-16T21:11:15.129Z,100762.58
2018-07-16T21:13:43.464Z,100769.98
2018-07-16T21:16:11.819Z,100773.73
2018-07-16T21:18:40.148Z,100768.70
2018-07-16T21:21:08.509Z,100772.37
2018-07-16T21:23:36.852Z,100771.80
2018-07-16T21:26:05.182Z,100776.61
2018-07-16T21:28:33.572Z,100777.91
2018-07-16T21:31:01.914Z,100779.40
2018-07-16T21:33:30.214Z,100780.58
2018-07-16T21:35:58.533Z,100785.62
2018-07-16T21:38:26.887Z,100791.83
2018-07-16T21:40:55.229Z,100786.63
2018-07-16T21:43:23.573Z,100787.92
2018-07-16T21:45:51.994Z,100788.63
2018-07-16T21:48:20.316Z,100788.23
2018-07-16T21:50:48.706Z,100780.02
2018-07-16T21:53:17.092Z,100784.28
2018-07-16T21:55:45.459Z,100782.41
2018-07-16T21:58:13.749Z,100783.88
2018-07-16T22:00:42.108Z,100788.75
2018-07-16T22:03:10.400Z,100792.05
2018-07-16T22:05:38.735Z,100792.48
2018-07-16T22:08:07.160Z,100792.30
2018-07-16T22:10:35.481Z,100788.64
2018-07-16T22:13:03.816Z,100788.41
2018-07-16T22:15:32.117Z,100788.83
2018-07-16T22:18:00.466Z,100786.98
2018-07-16T22:20:28.852Z,100786.13
2018-07-16T22:22:57.248Z,100785.09
2018-07-16T22:25:26.256Z,100781.70
2018-07-16T22:27:54.600Z,100785.70
2018-07-16T22:30:22.984Z,100778.88
2018-07-16T22:32:51.291Z,100779.53
2018-07-16T22:35:19.621Z,100784.16
2018-07-16T22:37:47.982Z,100787.16
2018-07-16T22:40:16.315Z,100785.84
2018-07-16T22:42:44.644Z,100779.73
2018-07-16T22:45:12.993Z,100778.18
2018-07-16T22:47:41.329Z,100776.81
2018-07-16T22:50:09.659Z,100775.14
2018-07-16T22:52:37.996Z,100772.67
2018-07-16T22:55:06.329Z,100782.87
2018-07-16T22:57:34.635Z,100774.40
2018-07-16T23:00:02.938Z,100787.04
2018-07-16T23:02:31.228Z,100788.52
2018-07-16T23:04:59.526Z,100788.32
2018-07-16T23:07:27.851Z,100784.98
2018-07-16T23:09:56.163Z,100786.74
2018-07-16T23:12:24.507Z,100792.70
2018-07-16T23:14:52.819Z,100790.94
2018-07-16T23:17:21.116Z,100790.83
2018-07-16T23:19:49.440Z,100795.03
2018-07-16T23:22:17.743Z,100794.17
2018-07-16T23:24:46.042Z,100794.53
2018-07-16T23:27:14.454Z,100796.29
2018-07-16T23:29:42.793Z,100789.47
2018-07-16T23:32:11.134Z,100784.52
2018-07-16T23:34:39.472Z,100786.64
2018-07-16T23:37:07.765Z,100785.27
2018-07-16T23:39:36.090Z,100780.80
2018-07-16T23:42:04.441Z,100783.27
2018-07-16T23:44:32.752Z,100778.67
2018-07-16T23:47:01.080Z,100780.03
2018-07-16T23:49:29.394Z,100782.16
2018-07-16T23:51:57.702Z,100778.44
2018-07-16T23:54:26.051Z,100781.20
2018-07-16T23:56:54.358Z,100777.37
2018-07-16T23:59:22.686Z,100778.48
